Time;durP1;ratioP1;P1;durP2;ratioP2;P2;SDS_P1;SDS_P2;PMS_P1;PMS_P2;Temp;Humidity;BMP_temperature;BMP_pressure;BME280_temperature;BME280_humidity;BME280_pressure;Samples;Min_cycle;Max_cycle;Signal;HPM_P1;HPM_P2
2021/12/31 00:01:18;;;;;;;;;;;14.70;99.90;;;;;;5030792;28;19967;-65
2021/12/31 00:03:44;;;;;;;;;;;14.80;99.90;;;;;;5025414;28;19928;-60
2021/12/31 00:06:10;;;;;;;;;;;14.70;99.90;;;;;;5021273;28;20291;-64
2021/12/31 00:08:35;;;;;;;;;;;14.50;99.90;;;;;;5020031;28;20375;-60
2021/12/31 00:11:01;;;;;;;;;;;14.80;99.90;;;;;;5025831;28;19921;-62
2021/12/31 00:13:27;;;;;;;;;;;;;;;;;;5033710;28;19928;-61
2021/12/31 00:15:53;;;;;;;;;;;14.50;99.90;;;;;;5016408;28;19930;-61
2021/12/31 00:18:18;;;;;;;;;;;14.90;99.90;;;;;;5020410;28;20387;-60
2021/12/31 00:20:44;;;;;;;;;;;14.70;99.90;;;;;;5023272;28;20721;-60
2021/12/31 00:23:12;;;;;;;;;;;14.80;99.90;;;;;;5003935;28;19932;-61
2021/12/31 00:25:40;;;;;;;;;;;14.50;99.90;;;;;;5014654;28;19952;-60
2021/12/31 00:28:06;;;;;;;;;;;14.60;99.90;;;;;;5032757;28;19928;-61
2021/12/31 00:30:32;;;;;;;;;;;;;;;;;;5024356;28;19925;-61
2021/12/31 00:32:57;;;;;;;;;;;14.70;99.90;;;;;;5019409;28;20338;-61
2021/12/31 00:35:23;;;;;;;;;;;14.80;99.90;;;;;;5030826;28;19925;-60
2021/12/31 00:37:49;;;;;;;;;;;14.60;99.90;;;;;;5031956;28;19986;-65
2021/12/31 00:40:15;;;;;;;;;;;14.60;99.90;;;;;;5027272;28;19928;-65
2021/12/31 00:42:41;;;;;;;;;;;14.50;99.90;;;;;;5014584;28;19925;-65
2021/12/31 00:45:07;;;;;;;;;;;14.70;99.90;;;;;;5027032;28;20290;-60
2021/12/31 00:47:33;;;;;;;;;;;14.40;99.90;;;;;;5015437;28;19975;-61
2021/12/31 00:49:59;;;;;;;;;;;;;;;;;;5018400;28;19925;-61
2021/12/31 00:52:25;;;;;;;;;;;14.60;99.90;;;;;;5021393;28;20386;-60
2021/12/31 00:54:50;;;;;;;;;;;14.70;99.90;;;;;;5027960;28;19928;-60
2021/12/31 00:57:16;;;;;;;;;;;14.80;99.90;;;;;;5023308;28;20427;-60
2021/12/31 00:59:42;;;;;;;;;;;14.50;99.90;;;;;;5027651;28;20362;-60
2021/12/31 01:02:08;;;;;;;;;;;14.90;99.90;;;;;;5033204;28;19928;-60
2021/12/31 01:04:33;;;;;;;;;;;14.80;99.90;;;;;;5031613;28;20374;-60
2021/12/31 01:06:59;;;;;;;;;;;14.70;99.90;;;;;;5034025;28;19978;-61
2021/12/31 01:09:25;;;;;;;;;;;;;;;;;;5022289;28;20351;-61
2021/12/31 01:11:51;;;;;;;;;;;14.70;99.90;;;;;;5012284;28;20359;-61
2021/12/31 01:14:34;;;;;;;;;;;;;;;;;;5022738;28;19928;-61
2021/12/31 01:17:06;;;;;;;;;;;;;;;;;;5014366;28;19932;-61
2021/12/31 01:19:45;;;;;;;;;;;14.50;99.90;;;;;;5004051;28;19928;-60
2021/12/31 01:22:27;;;;;;;;;;;14.80;99.90;;;;;;5029790;28;19921;-61
2021/12/31 01:24:53;;;;;;;;;;;14.90;99.90;;;;;;5019022;28;19921;-60
2021/12/31 01:27:19;;;;;;;;;;;14.60;99.90;;;;;;5032583;28;20016;-60
2021/12/31 01:29:44;;;;;;;;;;;;;;;;;;5032183;28;19932;-67
2021/12/31 01:32:10;;;;;;;;;;;14.80;99.90;;;;;;5028526;28;19921;-65
2021/12/31 01:34:36;;;;;;;;;;;14.70;99.90;;;;;;5027444;28;19921;-60
2021/12/31 01:37:02;;;;;;;;;;;;;;;;;;5032983;28;19921;-60
2021/12/31 01:39:28;;;;;;;;;;;14.70;99.90;;;;;;5025248;28;20432;-65
2021/12/31 01:41:56;;;;;;;;;;;14.90;99.90;;;;;;5025502;28;19925;-60
2021/12/31 01:44:23;;;;;;;;;;;14.90;99.90;;;;;;5031868;28;19921;-61
2021/12/31 01:46:58;;;;;;;;;;;14.90;99.90;;;;;;5035656;28;19921;-61
2021/12/31 01:49:27;;;;;;;;;;;14.90;99.90;;;;;;5015631;28;19963;-60
2021/12/31 01:51:53;;;;;;;;;;;14.90;99.90;;;;;;5010854;28;19921;-60
2021/12/31 01:54:19;;;;;;;;;;;14.80;99.90;;;;;;5026290;28;19979;-61
2021/12/31 01:56:45;;;;;;;;;;;14.70;99.90;;;;;;5033616;28;19964;-60
2021/12/31 01:59:10;;;;;;;;;;;14.80;99.90;;;;;;5032644;28;19921;-60
2021/12/31 02:01:36;;;;;;;;;;;15.00;99.90;;;;;;5013182;28;19921;-60
2021/12/31 02:04:01;;;;;;;;;;;14.90;99.90;;;;;;5033535;28;20359;-60
2021/12/31 02:06:28;;;;;;;;;;;;;;;;;;5009757;28;19921;-62
2021/12/31 02:08:54;;;;;;;;;;;14.80;99.90;;;;;;5023100;28;20016;-61
2021/12/31 02:11:20;;;;;;;;;;;14.70;99.90;;;;;;5015653;28;20378;-61
2021/12/31 02:13:46;;;;;;;;;;;14.70;99.90;;;;;;5014877;28;19921;-62
2021/12/31 02:16:12;;;;;;;;;;;14.90;99.90;;;;;;5014271;28;19990;-63
2021/12/31 02:18:37;;;;;;;;;;;14.90;99.90;;;;;;5013704;28;19929;-63
2021/12/31 02:21:08;;;;;;;;;;;14.80;99.90;;;;;;5025503;28;20397;-62
2021/12/31 02:23:42;;;;;;;;;;;14.70;99.90;;;;;;5029434;28;19921;-62
2021/12/31 02:26:08;;;;;;;;;;;;;;;;;;5017860;28;20287;-65
2021/12/31 02:28:33;;;;;;;;;;;14.80;99.90;;;;;;5027270;28;20012;-62
2021/12/31 02:31:03;;;;;;;;;;;15.00;99.90;;;;;;5019432;28;20275;-62
2021/12/31 02:33:28;;;;;;;;;;;15.00;99.90;;;;;;5035234;28;19921;-62
2021/12/31 02:35:54;;;;;;;;;;;14.70;99.90;;;;;;5017117;28;20377;-62
2021/12/31 02:38:20;;;;;;;;;;;14.70;99.90;;;;;;5035848;28;19967;-63
2021/12/31 02:40:45;;;;;;;;;;;14.70;99.90;;;;;;5031204;28;19929;-67
2021/12/31 02:43:11;;;;;;;;;;;14.80;99.90;;;;;;5026652;28;20379;-67
2021/12/31 02:45:37;;;;;;;;;;;14.60;99.90;;;;;;5012591;28;19921;-62
2021/12/31 02:48:04;;;;;;;;;;;14.80;99.90;;;;;;5031705;28;19936;-62
2021/12/31 02:50:34;;;;;;;;;;;14.80;99.90;;;;;;5029051;28;19928;-62
2021/12/31 02:53:00;;;;;;;;;;;14.60;99.90;;;;;;5035981;28;19932;-62
2021/12/31 02:55:26;;;;;;;;;;;14.90;99.90;;;;;;5033345;28;19921;-62
2021/12/31 02:57:51;;;;;;;;;;;14.80;99.90;;;;;;5001612;28;20082;-63
2021/12/31 03:00:17;;;;;;;;;;;14.90;99.90;;;;;;5034519;28;19943;-62
2021/12/31 03:02:42;;;;;;;;;;;14.90;99.90;;;;;;4997818;28;20036;-62
2021/12/31 03:05:08;;;;;;;;;;;14.80;99.90;;;;;;5000141;28;20008;-62
2021/12/31 03:07:34;;;;;;;;;;;14.70;99.90;;;;;;5019554;28;19921;-62
2021/12/31 03:10:00;;;;;;;;;;;14.70;99.90;;;;;;5009886;28;19929;-62
2021/12/31 03:12:25;;;;;;;;;;;14.80;99.90;;;;;;5031684;28;20012;-62
2021/12/31 03:14:51;;;;;;;;;;;;;;;;;;5035319;28;19925;-63
2021/12/31 03:17:17;;;;;;;;;;;14.80;99.90;;;;;;4998316;28;20454;-63
2021/12/31 03:19:43;;;;;;;;;;;14.60;99.90;;;;;;5022498;28;19957;-68
2021/12/31 03:22:09;;;;;;;;;;;14.90;99.90;;;;;;5029306;28;19925;-67
2021/12/31 03:24:34;;;;;;;;;;;14.90;99.90;;;;;;5033917;28;19928;-63
2021/12/31 03:27:00;;;;;;;;;;;14.90;99.90;;;;;;5015985;28;19921;-63
2021/12/31 03:29:26;;;;;;;;;;;14.80;99.90;;;;;;5025421;28;20317;-62
2021/12/31 03:31:52;;;;;;;;;;;15.00;99.90;;;;;;5030696;28;20347;-63
2021/12/31 03:34:18;;;;;;;;;;;14.50;99.90;;;;;;5031958;28;19921;-62
2021/12/31 03:36:44;;;;;;;;;;;14.80;99.90;;;;;;5002348;28;20054;-63
2021/12/31 03:39:09;;;;;;;;;;;14.80;99.90;;;;;;5034645;28;19921;-62
2021/12/31 03:41:35;;;;;;;;;;;14.70;99.90;;;;;;5024809;28;19922;-62
2021/12/31 03:44:01;;;;;;;;;;;14.50;99.90;;;;;;5030333;28;19923;-62
2021/12/31 03:46:27;;;;;;;;;;;14.80;99.90;;;;;;5032509;28;20043;-68
2021/12/31 03:48:52;;;;;;;;;;;14.90;99.90;;;;;;5020006;28;19936;-68
2021/12/31 03:51:18;;;;;;;;;;;14.90;99.90;;;;;;5013127;28;19984;-67
2021/12/31 03:53:44;;;;;;;;;;;14.80;99.90;;;;;;5016719;28;19922;-67
2021/12/31 03:56:09;;;;;;;;;;;15.10;99.90;;;;;;5024623;28;20285;-63
2021/12/31 03:58:35;;;;;;;;;;;14.80;99.90;;;;;;5029779;28;20418;-63
2021/12/31 04:01:00;;;;;;;;;;;14.70;99.90;;;;;;5016578;28;20016;-62
2021/12/31 04:03:26;;;;;;;;;;;15.00;99.90;;;;;;5016559;28;20429;-63
2021/12/31 04:05:53;;;;;;;;;;;15.00;99.90;;;;;;4999335;28;20261;-63
2021/12/31 04:08:19;;;;;;;;;;;14.80;99.90;;;;;;5031104;28;20303;-62
2021/12/31 04:10:45;;;;;;;;;;;14.90;99.90;;;;;;5028249;28;20371;-63
2021/12/31 04:13:10;;;;;;;;;;;14.80;99.90;;;;;;5031671;28;19967;-63
2021/12/31 04:15:36;;;;;;;;;;;14.80;99.90;;;;;;5034854;28;19925;-63
2021/12/31 04:18:01;;;;;;;;;;;14.80;99.90;;;;;;5033687;28;19921;-62
2021/12/31 04:20:37;;;;;;;;;;;14.90;99.90;;;;;;5017090;28;19921;-63
2021/12/31 04:23:04;;;;;;;;;;;14.80;99.90;;;;;;5029945;28;19974;-64
2021/12/31 04:25:30;;;;;;;;;;;14.70;99.90;;;;;;5020158;28;20333;-63
2021/12/31 04:27:55;;;;;;;;;;;14.70;99.90;;;;;;5012845;28;20004;-64
2021/12/31 04:30:21;;;;;;;;;;;;;;;;;;5015921;28;20291;-63
2021/12/31 04:32:47;;;;;;;;;;;15.00;99.90;;;;;;5032358;28;19917;-63
2021/12/31 04:35:13;;;;;;;;;;;14.80;99.90;;;;;;5026688;28;19928;-62
2021/12/31 04:37:40;;;;;;;;;;;14.80;99.90;;;;;;5014744;28;19927;-62
2021/12/31 04:40:06;;;;;;;;;;;15.00;99.90;;;;;;5020589;28;19924;-62
2021/12/31 04:42:32;;;;;;;;;;;14.70;99.90;;;;;;5023023;28;20040;-62
2021/12/31 04:44:58;;;;;;;;;;;;;;;;;;5030083;28;20015;-63
2021/12/31 04:47:24;;;;;;;;;;;15.10;99.90;;;;;;5026086;28;19928;-62
2021/12/31 04:49:50;;;;;;;;;;;;;;;;;;5034399;28;19925;-68
2021/12/31 04:52:15;;;;;;;;;;;14.80;99.90;;;;;;5025021;28;19927;-62
2021/12/31 04:54:41;;;;;;;;;;;14.90;99.90;;;;;;5030031;28;19921;-62
2021/12/31 04:57:06;;;;;;;;;;;14.80;99.90;;;;;;5026388;28;19928;-62
2021/12/31 04:59:32;;;;;;;;;;;14.80;99.90;;;;;;5033323;28;19921;-62
2021/12/31 05:01:58;;;;;;;;;;;15.00;99.90;;;;;;5023155;28;19927;-60
2021/12/31 05:04:23;;;;;;;;;;;14.90;99.90;;;;;;5032974;28;19928;-60
2021/12/31 05:06:50;;;;;;;;;;;14.90;99.90;;;;;;5033532;28;19921;-60
2021/12/31 05:09:16;;;;;;;;;;;15.00;99.90;;;;;;5019122;28;19922;-60
2021/12/31 05:11:41;;;;;;;;;;;15.00;99.90;;;;;;5014436;28;19921;-61
2021/12/31 05:14:07;;;;;;;;;;;15.00;99.90;;;;;;5022257;28;19974;-60
2021/12/31 05:16:35;;;;;;;;;;;14.90;99.90;;;;;;5033632;28;19917;-61
2021/12/31 05:19:02;;;;;;;;;;;14.90;99.90;;;;;;5033386;28;19928;-60
2021/12/31 05:21:28;;;;;;;;;;;15.10;99.90;;;;;;5027534;28;19921;-60
2021/12/31 05:23:53;;;;;;;;;;;15.00;99.90;;;;;;5033102;28;19921;-60
2021/12/31 05:26:19;;;;;;;;;;;14.90;99.90;;;;;;5034386;28;19925;-61
2021/12/31 05:28:45;;;;;;;;;;;14.80;99.90;;;;;;5028955;28;19993;-60
2021/12/31 05:31:10;;;;;;;;;;;14.80;99.90;;;;;;5024207;28;19928;-60
2021/12/31 05:33:36;;;;;;;;;;;15.20;99.90;;;;;;5019318;28;20391;-65
2021/12/31 05:36:02;;;;;;;;;;;15.10;99.90;;;;;;5009722;28;19999;-60
2021/12/31 05:38:28;;;;;;;;;;;;;;;;;;5031069;28;19925;-61
2021/12/31 05:40:53;;;;;;;;;;;14.80;99.90;;;;;;5037315;28;19983;-61
2021/12/31 05:43:19;;;;;;;;;;;14.80;99.90;;;;;;5029679;28;19925;-61
2021/12/31 05:45:45;;;;;;;;;;;;;;;;;;5030049;28;19921;-61
2021/12/31 05:48:10;;;;;;;;;;;15.00;99.90;;;;;;5028291;28;19925;-60
2021/12/31 05:50:36;;;;;;;;;;;15.00;99.90;;;;;;5026717;28;19960;-65
2021/12/31 05:53:02;;;;;;;;;;;;;;;;;;5018922;28;20389;-65
2021/12/31 05:55:28;;;;;;;;;;;14.90;99.90;;;;;;5036316;28;19990;-60
2021/12/31 05:57:55;;;;;;;;;;;14.90;99.90;;;;;;5036866;28;19921;-60
2021/12/31 06:00:21;;;;;;;;;;;14.70;99.90;;;;;;5036802;28;19924;-60
2021/12/31 06:02:47;;;;;;;;;;;14.90;99.90;;;;;;5006404;28;19922;-60
2021/12/31 06:05:12;;;;;;;;;;;14.80;99.90;;;;;;5020068;28;19921;-60
2021/12/31 06:07:38;;;;;;;;;;;15.10;99.90;;;;;;5036193;28;20043;-60
2021/12/31 06:10:04;;;;;;;;;;;14.80;99.90;;;;;;5036813;28;19976;-59
2021/12/31 06:12:29;;;;;;;;;;;14.80;99.90;;;;;;5018046;28;19963;-61
2021/12/31 06:14:58;;;;;;;;;;;;;;;;;;5017168;28;19921;-63
2021/12/31 06:17:26;;;;;;;;;;;15.10;99.90;;;;;;5003224;28;20375;-60
2021/12/31 06:19:53;;;;;;;;;;;15.10;99.90;;;;;;5022028;28;19921;-60
2021/12/31 06:22:22;;;;;;;;;;;15.30;99.90;;;;;;5010626;28;19925;-65
2021/12/31 06:24:47;;;;;;;;;;;15.20;99.90;;;;;;5023978;28;19928;-60
2021/12/31 06:27:13;;;;;;;;;;;14.90;99.90;;;;;;5036597;28;19921;-60
2021/12/31 06:29:39;;;;;;;;;;;14.90;99.90;;;;;;5029512;28;19925;-60
2021/12/31 06:32:04;;;;;;;;;;;14.80;99.90;;;;;;5029079;28;19928;-60
2021/12/31 06:34:30;;;;;;;;;;;15.10;99.90;;;;;;5021759;28;20398;-60
2021/12/31 06:36:56;;;;;;;;;;;14.90;99.90;;;;;;5027457;28;19922;-60
2021/12/31 06:39:22;;;;;;;;;;;14.90;99.90;;;;;;5032865;28;19967;-60
2021/12/31 06:41:47;;;;;;;;;;;14.80;99.90;;;;;;5036521;28;19960;-60
2021/12/31 06:44:13;;;;;;;;;;;15.00;99.90;;;;;;5015575;28;20011;-60
2021/12/31 06:46:39;;;;;;;;;;;15.00;99.90;;;;;;5035539;28;19976;-60
2021/12/31 06:49:05;;;;;;;;;;;14.90;99.90;;;;;;5000308;28;19921;-60
2021/12/31 06:51:31;;;;;;;;;;;14.90;99.90;;;;;;5014580;28;19925;-60
2021/12/31 06:53:56;;;;;;;;;;;14.70;99.90;;;;;;5013651;28;19921;-60
2021/12/31 06:56:22;;;;;;;;;;;15.00;99.90;;;;;;5035996;28;19968;-60
2021/12/31 06:58:47;;;;;;;;;;;14.80;99.90;;;;;;5029541;28;19975;-60
2021/12/31 07:01:13;;;;;;;;;;;14.90;99.90;;;;;;5025456;28;19967;-61
2021/12/31 07:03:39;;;;;;;;;;;15.00;99.90;;;;;;5033201;28;20330;-60
2021/12/31 07:06:05;;;;;;;;;;;;;;;;;;5018726;28;19928;-62
2021/12/31 07:08:31;;;;;;;;;;;15.00;99.90;;;;;;5041220;28;19931;-61
2021/12/31 07:10:57;;;;;;;;;;;15.00;99.90;;;;;;5044015;28;19925;-64
2021/12/31 07:13:22;;;;;;;;;;;15.10;99.90;;;;;;5032340;28;20011;-65
2021/12/31 07:15:49;;;;;;;;;;;15.20;99.90;;;;;;5001794;28;20378;-64
2021/12/31 07:18:15;;;;;;;;;;;15.00;99.90;;;;;;5016078;28;19921;-65
2021/12/31 07:20:41;;;;;;;;;;;15.00;99.90;;;;;;5016049;28;19980;-60
2021/12/31 07:23:08;;;;;;;;;;;15.10;99.90;;;;;;5019519;28;20433;-60
2021/12/31 07:25:33;;;;;;;;;;;15.10;99.90;;;;;;5016186;28;19991;-60
2021/12/31 07:27:59;;;;;;;;;;;15.00;99.90;;;;;;5027595;28;19996;-60
2021/12/31 07:30:25;;;;;;;;;;;15.20;99.90;;;;;;5028587;28;19936;-61
2021/12/31 07:32:51;;;;;;;;;;;15.10;99.90;;;;;;5035057;28;19925;-60
2021/12/31 07:35:16;;;;;;;;;;;15.20;99.90;;;;;;5026090;28;19943;-65
2021/12/31 07:37:42;;;;;;;;;;;15.00;99.90;;;;;;4999005;28;19921;-65
2021/12/31 07:40:10;;;;;;;;;;;15.30;99.90;;;;;;5015876;28;20349;-65
2021/12/31 07:42:36;;;;;;;;;;;;;;;;;;5031218;28;20011;-65
2021/12/31 07:45:03;;;;;;;;;;;15.00;99.90;;;;;;5017631;28;19928;-65
2021/12/31 07:47:28;;;;;;;;;;;15.20;99.90;;;;;;5011754;28;19925;-65
2021/12/31 07:49:54;;;;;;;;;;;15.00;99.90;;;;;;5044466;28;19990;-65
2021/12/31 07:52:20;;;;;;;;;;;15.00;99.90;;;;;;5033924;28;20397;-65
2021/12/31 07:54:45;;;;;;;;;;;15.10;99.90;;;;;;5034372;28;20370;-65
2021/12/31 07:57:11;;;;;;;;;;;15.10;99.90;;;;;;5031643;28;19921;-65
2021/12/31 07:59:37;;;;;;;;;;;15.40;99.90;;;;;;5034303;28;19974;-64
2021/12/31 08:02:02;;;;;;;;;;;15.20;99.90;;;;;;5010316;28;19936;-64
2021/12/31 08:04:28;;;;;;;;;;;15.10;99.90;;;;;;5020284;28;20407;-60
2021/12/31 08:06:53;;;;;;;;;;;15.20;99.90;;;;;;5030434;28;19974;-65
2021/12/31 08:09:19;;;;;;;;;;;15.10;99.90;;;;;;5016452;28;19956;-65
2021/12/31 08:11:45;;;;;;;;;;;15.30;99.90;;;;;;5005121;28;19943;-66
2021/12/31 08:14:10;;;;;;;;;;;15.00;99.90;;;;;;5018798;28;19928;-66
2021/12/31 08:16:36;;;;;;;;;;;15.40;99.90;;;;;;5033749;28;20275;-65
2021/12/31 08:19:02;;;;;;;;;;;15.50;99.90;;;;;;5025373;28;20032;-65
2021/12/31 08:21:27;;;;;;;;;;;15.30;99.90;;;;;;5015179;28;20406;-65
2021/12/31 08:23:53;;;;;;;;;;;15.20;99.90;;;;;;5026637;28;19921;-60
2021/12/31 08:26:19;;;;;;;;;;;15.20;99.90;;;;;;5019600;28;19925;-65
2021/12/31 08:28:44;;;;;;;;;;;15.20;99.90;;;;;;5020443;28;20363;-66
2021/12/31 08:31:10;;;;;;;;;;;15.50;99.90;;;;;;5034110;28;19928;-66
2021/12/31 08:33:36;;;;;;;;;;;15.20;99.90;;;;;;5032192;28;19975;-65
2021/12/31 08:36:01;;;;;;;;;;;15.20;99.90;;;;;;5026785;28;19975;-65
2021/12/31 08:38:27;;;;;;;;;;;;;;;;;;5008772;28;19991;-65
2021/12/31 08:40:54;;;;;;;;;;;15.50;99.90;;;;;;5026669;28;19967;-65
2021/12/31 08:43:20;;;;;;;;;;;15.30;99.90;;;;;;5034248;28;19928;-66
2021/12/31 08:45:45;;;;;;;;;;;15.40;99.90;;;;;;5012809;28;19921;-65
2021/12/31 08:48:11;;;;;;;;;;;15.50;99.90;;;;;;5025281;28;19966;-60
2021/12/31 08:50:37;;;;;;;;;;;;;;;;;;5017874;28;19921;-66
2021/12/31 08:53:03;;;;;;;;;;;15.40;99.90;;;;;;5019903;28;19963;-66
2021/12/31 08:55:28;;;;;;;;;;;15.30;99.90;;;;;;5033975;28;19973;-66
2021/12/31 08:57:54;;;;;;;;;;;;;;;;;;5028857;28;20000;-65
2021/12/31 09:00:20;;;;;;;;;;;15.50;99.90;;;;;;5022975;28;19928;-61
2021/12/31 09:02:48;;;;;;;;;;;15.40;99.90;;;;;;5023958;28;19925;-65
2021/12/31 09:05:14;;;;;;;;;;;;;;;;;;5009033;28;19922;-65
2021/12/31 09:07:40;;;;;;;;;;;15.70;99.90;;;;;;4994416;28;20359;-64
2021/12/31 09:10:07;;;;;;;;;;;15.50;99.90;;;;;;5006463;28;19921;-65
2021/12/31 09:12:33;;;;;;;;;;;15.50;99.90;;;;;;5013343;28;20385;-62
2021/12/31 09:14:59;;;;;;;;;;;15.30;99.90;;;;;;5013982;28;19931;-60
2021/12/31 09:17:24;;;;;;;;;;;15.50;99.90;;;;;;5029149;28;20016;-61
2021/12/31 09:19:50;;;;;;;;;;;15.40;99.90;;;;;;5013597;28;20015;-60
2021/12/31 09:22:16;;;;;;;;;;;15.60;99.90;;;;;;5014242;28;19921;-60
2021/12/31 09:24:41;;;;;;;;;;;15.50;99.90;;;;;;4992872;28;19922;-61
2021/12/31 09:27:07;;;;;;;;;;;15.40;99.90;;;;;;5001649;28;19921;-60
2021/12/31 09:29:33;;;;;;;;;;;15.30;99.90;;;;;;5014135;28;19921;-60
2021/12/31 09:31:58;;;;;;;;;;;15.30;99.90;;;;;;5013365;28;19925;-60
2021/12/31 09:34:24;;;;;;;;;;;15.30;99.90;;;;;;5013586;28;19968;-60
2021/12/31 09:36:50;;;;;;;;;;;;;;;;;;5014078;28;19967;-61
2021/12/31 09:39:16;;;;;;;;;;;15.40;99.90;;;;;;5014087;28;19921;-61
2021/12/31 09:41:42;;;;;;;;;;;15.40;99.90;;;;;;5013045;28;19944;-60
2021/12/31 09:44:07;;;;;;;;;;;15.40;99.90;;;;;;5013627;28;19929;-60
2021/12/31 09:46:33;;;;;;;;;;;15.40;99.90;;;;;;5014001;28;19927;-63
2021/12/31 09:48:59;;;;;;;;;;;;;;;;;;5018325;28;19967;-61
2021/12/31 09:51:25;;;;;;;;;;;15.50;99.90;;;;;;5020617;28;19972;-62
2021/12/31 09:53:52;;;;;;;;;;;15.20;99.90;;;;;;5022832;28;19980;-64
2021/12/31 09:56:18;;;;;;;;;;;15.20;99.90;;;;;;5012947;28;20268;-60
2021/12/31 09:58:43;;;;;;;;;;;15.40;99.90;;;;;;5019148;28;19971;-61
2021/12/31 10:01:10;;;;;;;;;;;;;;;;;;5022640;28;19975;-63
2021/12/31 10:03:36;;;;;;;;;;;;;;;;;;5020613;28;20302;-64
2021/12/31 10:06:02;;;;;;;;;;;;;;;;;;5031344;28;19974;-61
2021/12/31 10:08:29;;;;;;;;;;;15.30;99.90;;;;;;5031631;28;19920;-60
2021/12/31 10:10:55;;;;;;;;;;;;;;;;;;5009519;28;20387;-61
2021/12/31 10:13:23;;;;;;;;;;;15.70;99.90;;;;;;5032333;28;19943;-60
2021/12/31 10:15:51;;;;;;;;;;;;;;;;;;5028296;28;19926;-60
2021/12/31 10:18:18;;;;;;;;;;;15.60;99.90;;;;;;5028353;28;19956;-60
2021/12/31 10:20:47;;;;;;;;;;;15.70;99.90;;;;;;5033370;28;19920;-60
2021/12/31 10:23:13;;;;;;;;;;;15.60;99.90;;;;;;5032866;28;19921;-60
2021/12/31 10:25:39;;;;;;;;;;;15.40;99.90;;;;;;5035747;28;19928;-63
2021/12/31 10:28:09;;;;;;;;;;;15.50;99.90;;;;;;5036915;28;19921;-64
2021/12/31 10:30:34;;;;;;;;;;;15.60;99.90;;;;;;5018616;28;19921;-64
2021/12/31 10:33:00;;;;;;;;;;;15.50;99.90;;;;;;5016524;28;20313;-60
2021/12/31 10:35:26;;;;;;;;;;;15.50;99.90;;;;;;5017578;28;19921;-60
2021/12/31 10:37:58;;;;;;;;;;;15.40;99.90;;;;;;5016934;28;20419;-60
2021/12/31 10:40:36;;;;;;;;;;;15.50;99.90;;;;;;4999382;28;19972;-61
2021/12/31 10:43:25;;;;;;;;;;;15.70;99.90;;;;;;4999552;28;20302;-61
2021/12/31 10:46:00;;;;;;;;;;;15.70;99.90;;;;;;5035782;28;20035;-59
2021/12/31 10:48:44;;;;;;;;;;;15.50;99.90;;;;;;5028038;28;19928;-60
2021/12/31 10:51:11;;;;;;;;;;;15.40;99.90;;;;;;5016691;28;20335;-60
2021/12/31 10:53:37;;;;;;;;;;;15.40;99.90;;;;;;5017234;28;19925;-60
2021/12/31 10:56:12;;;;;;;;;;;15.60;99.90;;;;;;5032425;28;19936;-60
2021/12/31 10:58:39;;;;;;;;;;;15.30;99.90;;;;;;5036399;28;19925;-60
2021/12/31 11:01:07;;;;;;;;;;;15.40;99.90;;;;;;5035995;28;19921;-61
2021/12/31 11:03:36;;;;;;;;;;;15.50;99.90;;;;;;5041449;28;20005;-61
2021/12/31 11:06:03;;;;;;;;;;;15.90;99.90;;;;;;5042393;28;19928;-61
2021/12/31 11:08:28;;;;;;;;;;;15.40;99.90;;;;;;5035345;28;20355;-61
2021/12/31 11:10:54;;;;;;;;;;;15.50;99.90;;;;;;5036143;28;19928;-61
2021/12/31 11:13:20;;;;;;;;;;;15.40;99.90;;;;;;5018287;28;19975;-61
2021/12/31 11:15:46;;;;;;;;;;;15.50;99.90;;;;;;5018013;28;20402;-62
2021/12/31 11:18:13;;;;;;;;;;;15.50;99.90;;;;;;5017706;28;19917;-61
2021/12/31 11:20:39;;;;;;;;;;;15.40;99.90;;;;;;5035611;28;19979;-60
2021/12/31 11:23:05;;;;;;;;;;;15.60;99.90;;;;;;5036499;28;20314;-61
2021/12/31 11:25:30;;;;;;;;;;;15.70;99.90;;;;;;5034940;28;19921;-61
2021/12/31 11:27:56;;;;;;;;;;;15.60;99.90;;;;;;5015825;28;19928;-61
2021/12/31 11:30:28;;;;;;;;;;;15.40;99.90;;;;;;5017830;28;19921;-61
2021/12/31 11:32:58;;;;;;;;;;;15.40;99.90;;;;;;5035652;28;20302;-61
2021/12/31 11:35:30;;;;;;;;;;;15.50;99.90;;;;;;5035549;28;19944;-61
2021/12/31 11:37:56;;;;;;;;;;;15.40;99.90;;;;;;5027232;28;19974;-61
2021/12/31 11:40:28;;;;;;;;;;;15.50;99.90;;;;;;5031536;28;20016;-61
2021/12/31 11:43:13;;;;;;;;;;;15.50;99.90;;;;;;5030124;28;19974;-61
2021/12/31 11:45:39;;;;;;;;;;;15.80;99.90;;;;;;5015290;28;19933;-61
2021/12/31 11:48:23;;;;;;;;;;;15.50;99.90;;;;;;5019575;28;19921;-60
2021/12/31 11:51:04;;;;;;;;;;;15.50;99.90;;;;;;5018099;28;19926;-61
2021/12/31 11:53:30;;;;;;;;;;;15.50;99.90;;;;;;5015239;28;20012;-60
2021/12/31 11:55:55;;;;;;;;;;;15.60;99.90;;;;;;5015141;28;20004;-61
2021/12/31 11:58:40;;;;;;;;;;;15.80;99.90;;;;;;4998181;28;19921;-60
2021/12/31 12:01:25;;;;;;;;;;;15.60;99.90;;;;;;5015681;28;19968;-61
2021/12/31 12:04:10;;;;;;;;;;;15.70;99.90;;;;;;4997291;28;19921;-60
2021/12/31 12:06:56;;;;;;;;;;;15.50;99.90;;;;;;5029749;28;19943;-60
2021/12/31 12:09:22;;;;;;;;;;;15.40;99.90;;;;;;5034074;28;19928;-65
2021/12/31 12:12:17;;;;;;;;;;;15.60;99.90;;;;;;5035155;28;19925;-65
2021/12/31 12:14:47;;;;;;;;;;;15.40;99.90;;;;;;5013029;28;19933;-65
2021/12/31 12:17:13;;;;;;;;;;;15.50;99.90;;;;;;4987335;28;20375;-65
2021/12/31 12:19:51;;;;;;;;;;;15.50;99.90;;;;;;5012928;28;19926;-65
2021/12/31 12:22:17;;;;;;;;;;;;;;;;;;5012534;28;19930;-65
2021/12/31 12:24:44;;;;;;;;;;;15.60;99.90;;;;;;5012630;28;20326;-65
2021/12/31 12:27:13;;;;;;;;;;;15.80;99.90;;;;;;5011963;28;19975;-65
2021/12/31 12:29:39;;;;;;;;;;;15.60;99.90;;;;;;5012451;28;19929;-65
2021/12/31 12:32:09;;;;;;;;;;;15.50;99.90;;;;;;5011661;28;19922;-66
2021/12/31 12:34:35;;;;;;;;;;;15.60;99.90;;;;;;5011683;28;20131;-65
2021/12/31 12:37:01;;;;;;;;;;;15.70;99.90;;;;;;5004438;28;19921;-61
2021/12/31 12:39:26;;;;;;;;;;;15.30;99.90;;;;;;4992855;28;19995;-61
2021/12/31 12:41:52;;;;;;;;;;;15.50;99.90;;;;;;4993900;28;19922;-60
2021/12/31 12:44:17;;;;;;;;;;;15.50;99.90;;;;;;4976612;28;19925;-61
2021/12/31 12:46:54;;;;;;;;;;;15.50;99.90;;;;;;4993964;28;20295;-61
2021/12/31 12:49:20;;;;;;;;;;;15.60;99.90;;;;;;5012075;28;19921;-62
2021/12/31 12:51:46;;;;;;;;;;;15.50;99.90;;;;;;5015088;28;20279;-62
2021/12/31 12:54:16;;;;;;;;;;;15.70;99.90;;;;;;5029119;28;19925;-64
2021/12/31 12:56:42;;;;;;;;;;;;;;;;;;5033661;28;19928;-65
2021/12/31 12:59:09;;;;;;;;;;;15.80;99.90;;;;;;5016782;28;19933;-66
2021/12/31 13:01:35;;;;;;;;;;;15.40;99.90;;;;;;5034106;28;19921;-62
2021/12/31 13:04:01;;;;;;;;;;;15.70;99.90;;;;;;5007354;28;19944;-67
2021/12/31 13:06:27;;;;;;;;;;;15.80;99.90;;;;;;5033130;28;20016;-66
2021/12/31 13:09:02;;;;;;;;;;;15.80;99.90;;;;;;5020558;28;19921;-65
2021/12/31 13:11:27;;;;;;;;;;;15.70;99.90;;;;;;5002913;28;19927;-66
2021/12/31 13:13:53;;;;;;;;;;;15.80;99.90;;;;;;5014389;28;19921;-65
2021/12/31 13:16:19;;;;;;;;;;;15.90;99.90;;;;;;4996657;28;19921;-65
2021/12/31 13:18:45;;;;;;;;;;;;;;;;;;4996546;28;19921;-66
2021/12/31 13:21:12;;;;;;;;;;;16.10;99.90;;;;;;5032798;28;19925;-65
2021/12/31 13:23:39;;;;;;;;;;;16.20;99.90;;;;;;5033622;28;20410;-64
2021/12/31 13:26:14;;;;;;;;;;;16.00;99.90;;;;;;5020145;28;19979;-64
2021/12/31 13:28:40;;;;;;;;;;;15.80;99.90;;;;;;4996392;28;19930;-61
2021/12/31 13:31:09;;;;;;;;;;;16.00;99.90;;;;;;5024023;28;20367;-62
2021/12/31 13:33:38;;;;;;;;;;;16.00;99.90;;;;;;5015846;28;19921;-61
2021/12/31 13:36:04;;;;;;;;;;;;;;;;;;5025808;28;19921;-61
2021/12/31 13:38:29;;;;;;;;;;;15.90;99.90;;;;;;5020802;28;19976;-65
2021/12/31 13:40:55;;;;;;;;;;;16.00;99.90;;;;;;5000063;28;20264;-65
2021/12/31 13:43:23;;;;;;;;;;;16.20;99.90;;;;;;4997556;28;19922;-64
2021/12/31 13:45:49;;;;;;;;;;;16.00;99.90;;;;;;5012052;28;19920;-65
2021/12/31 13:48:16;;;;;;;;;;;16.10;99.90;;;;;;5032770;28;20355;-65
2021/12/31 13:50:42;;;;;;;;;;;16.20;99.90;;;;;;5041068;28;20425;-65
2021/12/31 13:53:11;;;;;;;;;;;16.00;99.90;;;;;;5018747;28;20008;-65
2021/12/31 13:55:39;;;;;;;;;;;16.00;99.90;;;;;;5010307;28;19944;-65
2021/12/31 13:58:06;;;;;;;;;;;16.20;99.90;;;;;;5027174;28;20338;-65
2021/12/31 14:00:32;;;;;;;;;;;16.40;99.90;;;;;;5002731;28;19929;-65
2021/12/31 14:02:59;;;;;;;;;;;16.10;99.90;;;;;;4999447;28;20399;-63
2021/12/31 14:05:27;;;;;;;;;;;16.10;99.90;;;;;;4999021;28;20760;-62
2021/12/31 14:10:24;;;;;;;;;;;16.00;99.90;;;;;;5037291;28;19921;-62
2021/12/31 14:12:58;;;;;;;;;;;16.10;99.90;;;;;;5018935;28;19928;-61
2021/12/31 14:15:25;;;;;;;;;;;15.90;99.90;;;;;;5035507;28;19928;-61
2021/12/31 14:17:50;;;;;;;;;;;15.90;99.90;;;;;;5001929;28;19943;-62
2021/12/31 14:20:17;;;;;;;;;;;16.00;99.90;;;;;;5036887;28;19921;-65
2021/12/31 14:22:43;;;;;;;;;;;15.80;99.90;;;;;;5018120;28;20362;-62
2021/12/31 14:25:09;;;;;;;;;;;15.90;99.90;;;;;;5035117;28;19982;-64
2021/12/31 14:27:34;;;;;;;;;;;15.90;99.90;;;;;;5006243;28;19922;-65
2021/12/31 14:30:00;;;;;;;;;;;15.80;99.90;;;;;;4999326;28;19921;-64
2021/12/31 14:32:26;;;;;;;;;;;15.90;99.90;;;;;;4999611;28;19921;-65